Time;durP1;ratioP1;P1;durP2;ratioP2;P2;SDS_P1;SDS_P2;PMS_P1;PMS_P2;Temp;Humidity;BMP_temperature;BMP_pressure;BME280_temperature;BME280_humidity;BME280_pressure;Samples;Min_cycle;Max_cycle;Signal;HPM_P1;HPM_P2
2023/01/05 00:05:00;;;;;;;1.10;0.30;;;;;;;10.99;77.14;99411.06;10378032;28;20052;-75
2023/01/05 00:10:02;;;;;;;1.90;0.45;;;;;;;11.02;75.96;99397.78;10376386;28;20147;-75
2023/01/05 00:25:46;;;;;;;1.70;0.40;;;;;;;11.23;72.77;99413.53;10375710;28;20049;-74
2023/01/05 00:30:48;;;;;;;1.30;0.50;;;;;;;11.27;71.89;99401.94;10378207;28;20124;-75
2023/01/05 00:35:50;;;;;;;1.80;0.50;;;;;;;11.26;71.75;99401.09;10375082;28;20053;-75
2023/01/05 00:40:54;;;;;;;3.03;0.73;;;;;;;11.11;71.83;99400.00;10360957;28;20046;-75
2023/01/05 00:45:56;;;;;;;1.55;0.63;;;;;;;11.35;70.70;99419.09;10378865;28;20056;-75
2023/01/05 00:50:57;;;;;;;1.92;0.50;;;;;;;11.28;71.37;99407.13;10383533;28;20042;-75
2023/01/05 00:55:59;;;;;;;1.77;0.43;;;;;;;11.25;72.22;99415.19;10385104;28;20042;-75
2023/01/05 01:01:08;;;;;;;2.42;0.60;;;;;;;11.22;72.54;99417.09;10367425;28;20092;-75
2023/01/05 01:06:10;;;;;;;2.92;1.02;;;;;;;11.12;73.46;99416.66;10384533;28;20088;-74
2023/01/05 01:11:12;;;;;;;2.20;0.68;;;;;;;11.17;73.38;99433.06;10384765;28;20089;-75
2023/01/05 01:16:14;;;;;;;2.83;0.63;;;;;;;11.11;74.22;99409.66;10381552;28;20503;-74
2023/01/05 01:21:17;;;;;;;1.80;0.77;;;;;;;11.07;75.17;99411.59;10383692;28;20124;-74
2023/01/05 01:26:19;;;;;;;1.25;0.50;;;;;;;11.11;74.12;99415.78;10384722;28;20044;-74
2023/01/05 01:31:21;;;;;;;2.10;0.60;;;;;;;11.16;73.88;99406.84;10382468;28;20044;-75
2023/01/05 01:36:22;;;;;;;1.70;0.50;;;;;;;11.00;74.76;99419.81;10380933;28;20466;-75
2023/01/05 01:41:24;;;;;;;5.18;0.80;;;;;;;11.04;73.86;99405.59;10382503;28;20084;-75
2023/01/05 01:46:27;;;;;;;3.63;0.98;;;;;;;11.12;72.17;99419.28;10382365;28;20050;-75
2023/01/05 01:51:33;;;;;;;3.83;0.70;;;;;;;11.31;70.71;99420.16;10382033;28;20077;-75
2023/01/05 01:56:44;;;;;;;3.35;0.95;;;;;;;11.23;70.81;99424.91;10380505;28;20077;-74
2023/01/05 02:01:49;;;;;;;4.70;1.10;;;;;;;11.17;70.66;99419.91;10381260;28;20030;-75
2023/01/05 02:06:52;;;;;;;3.97;0.90;;;;;;;11.36;69.08;99433.97;10380525;28;20050;-75
2023/01/05 02:12:17;;;;;;;3.13;0.88;;;;;;;11.35;69.33;99423.50;10382643;28;20033;-75
2023/01/05 02:17:34;;;;;;;5.05;0.98;;;;;;;11.42;68.47;99419.69;10382855;28;20048;-74
2023/01/05 02:23:11;;;;;;;3.20;1.23;;;;;;;11.18;69.25;99405.00;10381164;28;20053;-75
2023/01/05 02:28:16;;;;;;;3.85;1.27;;;;;;;11.29;68.66;99385.19;10382149;28;20117;-75
2023/01/05 02:33:37;;;;;;;3.72;1.30;;;;;;;11.25;68.05;99396.75;10382697;28;20526;-75
2023/01/05 02:39:07;;;;;;;5.88;1.60;;;;;;;11.04;73.33;99403.81;10363326;28;20057;-74
2023/01/05 02:44:09;;;;;;;5.43;1.27;;;;;;;10.86;73.95;99409.88;10379941;28;20132;-74
2023/01/05 02:49:15;;;;;;;6.03;1.20;;;;;;;10.84;73.05;99402.03;10381472;28;20049;-74
2023/01/05 02:54:26;;;;;;;5.30;1.45;;;;;;;10.82;72.60;99400.41;10380132;28;20100;-74
2023/01/05 02:59:50;;;;;;;6.65;1.52;;;;;;;10.97;70.47;99389.22;10362914;28;20092;-74
2023/01/05 03:05:15;;;;;;;2.80;0.80;;;;;;;10.89;71.30;99386.09;10378472;28;20068;-74
2023/01/05 03:15:40;;;;;;;6.03;1.80;;;;;;;11.05;68.99;99384.47;10380203;28;20052;-74
2023/01/05 03:20:47;;;;;;;6.50;1.27;;;;;;;11.08;68.45;99388.75;10377211;28;20499;-75
2023/01/05 03:36:50;;;;;;;4.50;0.88;;;;;;;11.32;66.37;99384.19;10379495;28;20049;-74
2023/01/05 03:41:53;;;;;;;6.03;1.40;;;;;;;11.31;65.78;99380.69;10378363;28;20053;-73
2023/01/05 03:46:56;;;;;;;6.18;1.75;;;;;;;11.30;65.98;99396.56;10377856;28;20414;-73
2023/01/05 03:51:58;;;;;;;7.10;1.30;;;;;;;11.28;65.55;99391.34;10378388;28;20034;-73
2023/01/05 03:57:01;;;;;;;6.05;1.63;;;;;;;11.33;64.71;99396.41;10378308;28;20042;-75
2023/01/05 04:02:03;;;;;;;7.28;1.52;;;;;;;11.42;64.45;99403.91;10378048;28;20065;-74
2023/01/05 04:07:06;;;;;;;5.22;1.10;;;;;;;11.23;64.90;99403.84;10377203;28;20049;-74
2023/01/05 04:12:09;;;;;;;4.25;1.10;;;;;;;11.30;64.59;99412.34;10375465;28;20073;-73
2023/01/05 04:17:14;;;;;;;5.18;1.50;;;;;;;11.49;63.53;99425.53;10375393;28;20046;-75
2023/01/05 04:22:16;;;;;;;5.70;1.40;;;;;;;11.32;67.54;99455.22;10385456;28;20041;-74
2023/01/05 04:27:27;;;;;;;7.68;1.30;;;;;;;10.77;72.01;99447.94;10384362;28;20526;-74
2023/01/05 04:32:29;;;;;;;5.90;1.35;;;;;;;10.59;73.75;99448.69;10383895;28;20033;-74
2023/01/05 04:37:31;;;;;;;5.05;1.42;;;;;;;10.66;72.16;99441.41;10383122;28;20046;-74
2023/01/05 04:42:34;;;;;;;7.43;2.38;;;;;;;10.60;71.53;99445.16;10384339;28;20495;-74
2023/01/05 04:47:36;;;;;;;3.83;1.30;;;;;;;10.73;70.01;99440.25;10383045;28;20141;-74
2023/01/05 04:52:39;;;;;;;7.22;1.33;;;;;;;10.65;70.63;99455.47;10384240;28;20183;-74
2023/01/05 04:57:41;;;;;;;5.75;1.38;;;;;;;10.63;70.80;99462.56;10382958;28;20140;-74
2023/01/05 05:02:46;;;;;;;8.20;2.08;;;;;;;10.49;71.42;99465.72;10385418;28;20045;-74
2023/01/05 05:07:49;;;;;;;8.00;1.88;;;;;;;10.37;72.59;99474.13;10385163;28;20483;-74
2023/01/05 05:12:52;;;;;;;7.25;1.88;;;;;;;10.51;71.16;99474.44;10369338;28;20081;-74
2023/01/05 05:17:53;;;;;;;7.18;1.30;;;;;;;10.43;71.34;99477.34;10381895;28;20057;-74
2023/01/05 05:22:56;;;;;;;7.22;1.85;;;;;;;10.46;71.13;99474.63;10381224;28;20052;-74
2023/01/05 05:27:58;;;;;;;7.43;1.60;;;;;;;10.51;72.17;99482.31;10382921;28;20045;-74
2023/01/05 05:33:00;;;;;;;7.80;2.25;;;;;;;10.46;71.89;99490.38;10381866;28;20052;-74
2023/01/05 05:38:01;;;;;;;6.78;1.48;;;;;;;10.42;72.60;99486.16;10381515;28;20042;-74
2023/01/05 05:43:03;;;;;;;9.02;1.75;;;;;;;10.10;74.74;99498.75;10379701;28;20042;-75
2023/01/05 05:48:05;;;;;;;4.15;1.50;;;;;;;10.07;75.58;99500.63;10385437;28;20038;-74
2023/01/05 05:53:07;;;;;;;8.40;2.08;;;;;;;10.06;75.26;99499.78;10380083;28;20038;-74
2023/01/05 05:58:09;;;;;;;5.15;1.95;;;;;;;10.02;74.59;99508.69;10378971;28;20053;-74
2023/01/05 06:03:11;;;;;;;5.82;1.58;;;;;;;10.15;72.10;99508.22;10380494;28;20469;-74
2023/01/05 06:08:13;;;;;;;5.15;1.50;;;;;;;10.17;71.67;99498.50;10381844;28;20415;-74
2023/01/05 06:13:15;;;;;;;6.88;2.45;;;;;;;10.22;70.40;99497.41;10379774;28;20038;-74
2023/01/05 06:18:17;;;;;;;6.57;1.77;;;;;;;10.29;70.63;99493.66;10380325;28;20057;-73
2023/01/05 06:23:19;;;;;;;6.15;1.77;;;;;;;10.35;69.58;99495.19;10380096;28;20042;-74
2023/01/05 06:28:21;;;;;;;5.90;1.42;;;;;;;10.41;68.64;99517.75;10378230;28;20049;-74
2023/01/05 06:33:22;;;;;;;6.90;1.38;;;;;;;10.36;69.28;99515.31;10380826;28;20148;-74
2023/01/05 06:38:25;;;;;;;5.43;1.30;;;;;;;10.15;70.57;99516.97;10377856;28;20046;-73
2023/01/05 06:43:26;;;;;;;4.28;1.60;;;;;;;10.30;68.68;99529.53;10376729;28;20046;-74
2023/01/05 06:48:28;;;;;;;7.25;1.42;;;;;;;10.29;68.21;99538.31;10378557;28;20068;-74
2023/01/05 06:53:30;;;;;;;5.90;1.75;;;;;;;10.19;68.88;99543.97;10381922;28;20435;-74
2023/01/05 06:58:31;;;;;;;5.22;1.40;;;;;;;10.25;69.27;99544.59;10376992;28;20157;-74
2023/01/05 07:03:33;;;;;;;8.48;1.58;;;;;;;10.33;69.22;99546.94;10377001;28;20038;-74
2023/01/05 07:08:35;;;;;;;7.13;1.45;;;;;;;10.27;68.97;99557.66;10377140;28;20046;-74
2023/01/05 07:13:36;;;;;;;8.38;1.90;;;;;;;10.34;68.34;99557.38;10381943;28;20088;-74
2023/01/05 07:18:38;;;;;;;4.53;1.75;;;;;;;10.30;68.27;99565.44;10379455;28;20052;-73
2023/01/05 07:23:40;;;;;;;8.88;2.00;;;;;;;10.27;68.43;99570.81;10379557;28;20042;-73
2023/01/05 07:28:42;;;;;;;8.02;1.58;;;;;;;10.32;67.79;99582.03;10378489;28;20052;-74
2023/01/05 07:33:43;;;;;;;7.80;1.90;;;;;;;10.27;68.26;99597.97;10380085;28;20125;-74
2023/01/05 07:38:45;;;;;;;8.63;1.95;;;;;;;10.17;70.88;99591.28;10377830;28;20061;-73
2023/01/05 07:43:50;;;;;;;9.63;1.88;;;;;;;10.20;70.19;99590.31;10379073;28;20042;-73
2023/01/05 07:48:52;;;;;;;4.07;1.15;;;;;;;10.11;70.47;99599.41;10378730;28;20103;-72
2023/01/05 07:53:54;;;;;;;5.85;1.98;;;;;;;9.93;75.72;99621.09;10377453;28;20054;-74
2023/01/05 07:58:56;;;;;;;5.82;1.40;;;;;;;9.71;78.04;99618.34;10382517;28;20046;-74
2023/01/05 08:03:58;;;;;;;6.38;1.70;;;;;;;9.63;78.84;99617.75;10376054;28;20052;-74
2023/01/05 08:10:27;;;;;;;7.03;1.30;;;;;;;9.65;77.83;99610.66;10377873;28;20130;-74
2023/01/05 08:14:21;;;;;;;4.50;1.60;;;;;;;9.70;75.96;99624.53;10377384;28;20045;-75
2023/01/05 08:19:23;;;;;;;5.68;1.50;;;;;;;9.77;75.92;99631.25;10379281;28;20045;-74
2023/01/05 08:24:24;;;;;;;3.45;1.42;;;;;;;9.78;76.25;99622.47;10377147;28;20046;-74
2023/01/05 08:29:27;;;;;;;8.27;2.30;;;;;;;9.72;77.00;99630.56;10376803;28;20488;-74
2023/01/05 08:34:28;;;;;;;6.43;1.45;;;;;;;9.64;78.45;99659.69;10375935;28;20419;-73
2023/01/05 08:39:35;;;;;;;5.82;1.63;;;;;;;9.73;79.15;99651.50;10375887;28;20092;-76
2023/01/05 08:44:37;;;;;;;5.63;2.03;;;;;;;9.60;81.46;99653.66;10377357;28;20412;-74
2023/01/05 08:49:38;;;;;;;13.68;2.53;;;;;;;9.41;83.84;99668.31;10358615;28;20050;-74
2023/01/05 08:54:40;;;;;;;4.80;1.40;;;;;;;9.45;82.86;99667.31;10376131;28;20117;-75
2023/01/05 08:59:42;;;;;;;7.32;1.70;;;;;;;9.52;82.34;99683.72;10375942;28;20042;-75
2023/01/05 09:04:44;;;;;;;8.68;1.98;;;;;;;9.75;80.05;99681.19;10376601;28;20046;-75
2023/01/05 09:09:45;;;;;;;4.68;1.77;;;;;;;9.72;80.41;99685.69;10382680;28;20053;-75
2023/01/05 09:14:47;;;;;;;6.28;1.85;;;;;;;9.46;84.13;99689.16;10384283;28;20120;-76
2023/01/05 09:19:49;;;;;;;9.35;1.85;;;;;;;9.48;84.87;99701.34;10381594;28;20049;-75
2023/01/05 09:24:51;;;;;;;7.22;1.48;;;;;;;9.43;85.66;99699.75;10382616;28;20056;-75
2023/01/05 09:29:52;;;;;;;8.60;1.90;;;;;;;9.52;84.26;99707.34;10381935;28;20038;-75
2023/01/05 09:34:54;;;;;;;6.28;1.92;;;;;;;9.67;83.10;99708.59;10379537;28;20495;-75
2023/01/05 09:39:56;;;;;;;5.85;1.52;;;;;;;9.63;84.59;99702.59;10380476;28;20041;-74
2023/01/05 09:45:04;;;;;;;7.47;1.30;;;;;;;9.68;82.14;99707.69;10381200;28;20077;-74
2023/01/05 09:50:17;;;;;;;4.95;1.30;;;;;;;9.77;80.13;99717.88;10383845;28;20575;-75
2023/01/05 09:55:22;;;;;;;4.82;1.52;;;;;;;9.95;78.55;99712.00;10380121;28;20053;-75
2023/01/05 10:00:25;;;;;;;5.07;1.13;;;;;;;9.98;78.48;99708.41;10410412;22;20475;-67
2023/01/05 10:05:29;;;;;;;3.88;1.00;;;;;;;9.96;77.94;99731.22;10436786;28;20042;-67
2023/01/05 10:16:32;;;;;;;4.00;1.20;;;;;;;10.13;77.25;99738.53;10358920;28;20061;-67
2023/01/05 10:22:06;;;;;;;3.08;0.90;;;;;;;10.19;77.09;99746.22;10374713;28;20054;-67
2023/01/05 10:27:18;;;;;;;3.38;1.00;;;;;;;10.18;78.67;99753.25;10346028;28;20070;-68
2023/01/05 10:32:49;;;;;;;4.30;1.17;;;;;;;10.02;81.04;99741.53;10359280;28;20083;-67
2023/01/05 10:37:58;;;;;;;3.42;0.90;;;;;;;10.05;79.36;99754.56;10373956;28;20173;-66
2023/01/05 10:43:24;;;;;;;2.38;1.02;;;;;;;9.83;84.09;99757.91;10357439;28;20046;-68
2023/01/05 10:48:32;;;;;;;4.23;1.20;;;;;;;9.42;88.28;99750.50;10417006;28;20045;-66
2023/01/05 10:53:37;;;;;;;3.38;1.40;;;;;;;9.40;87.81;99755.81;10418625;28;20403;-67
2023/01/05 10:58:43;;;;;;;3.97;1.25;;;;;;;9.56;87.56;99756.16;10418139;28;20107;-67
2023/01/05 11:03:47;;;;;;;5.13;1.55;;;;;;;9.46;90.16;99742.47;10417490;28;20037;-67
2023/01/05 11:09:23;;;;;;;5.07;1.30;;;;;;;9.41;90.96;99754.03;10417773;28;20045;-67
2023/01/05 11:14:26;;;;;;;2.58;1.10;;;;;;;9.64;87.47;99753.31;10417474;28;20045;-67
2023/01/05 11:19:33;;;;;;;3.67;1.20;;;;;;;9.62;87.02;99760.38;10417195;28;20045;-67
2023/01/05 11:24:35;;;;;;;;;;;;;;;9.68;85.75;99768.03;10418797;28;20557;-67
2023/01/05 11:29:37;;;;;;;3.70;1.45;;;;;;;9.86;83.32;99770.06;10417619;28;19975;-68
2023/01/05 11:34:44;;;;;;;4.95;1.23;;;;;;;9.84;83.47;99762.25;10417059;28;20045;-67
2023/01/05 11:39:56;;;;;;;4.57;1.33;;;;;;;10.23;80.54;99760.97;10417007;28;20111;-68
2023/01/05 11:45:04;;;;;;;2.22;0.88;;;;;;;11.13;73.93;99780.50;10416208;28;20048;-67
2023/01/05 11:50:12;;;;;;;4.28;1.20;;;;;;;11.61;72.21;99775.94;10416559;28;20041;-68
2023/01/05 11:55:23;;;;;;;2.20;0.90;;;;;;;11.60;71.46;99782.13;10417030;28;20049;-68
2023/01/05 12:00:44;;;;;;;4.05;1.30;;;;;;;11.48;72.34;99780.00;10415700;28;20038;-67
2023/01/05 12:05:53;;;;;;;4.78;0.98;;;;;;;11.67;71.48;99784.50;10415727;28;20046;-68
2023/01/05 12:11:18;;;;;;;4.30;1.63;;;;;;;11.42;72.34;99793.41;10416318;28;20043;-67
2023/01/05 12:16:29;;;;;;;3.00;1.20;;;;;;;11.89;69.20;99792.44;10416022;28;20483;-67
2023/01/05 12:21:41;;;;;;;3.58;0.90;;;;;;;11.50;71.65;99799.19;10416640;28;20049;-68
2023/01/05 12:26:54;;;;;;;2.63;0.80;;;;;;;11.18;74.07;99810.97;10415757;28;20050;-67
2023/01/05 12:32:23;;;;;;;3.60;1.02;;;;;;;10.80;77.40;99801.84;10415465;28;20120;-67
2023/01/05 12:38:11;;;;;;;2.80;1.05;;;;;;;10.68;76.01;99812.84;10416123;28;20049;-67
2023/01/05 12:43:31;;;;;;;3.00;0.73;;;;;;;10.76;76.20;99824.81;10375914;28;20459;-68
2023/01/05 12:48:41;;;;;;;2.95;0.85;;;;;;;10.35;79.08;99832.34;10379271;28;20061;-67
2023/01/05 12:54:09;;;;;;;2.20;0.70;;;;;;;10.20;79.92;99831.97;10378759;28;20122;-67
2023/01/05 12:59:27;;;;;;;4.28;1.52;;;;;;;10.06;83.85;99830.66;10366212;28;20058;-68
2023/01/05 13:04:39;;;;;;;7.30;1.33;;;;;;;9.75;89.17;99846.53;10378181;28;20056;-68
2023/01/05 13:09:56;;;;;;;4.85;1.35;;;;;;;9.68;89.28;99846.78;10378053;28;20041;-68
2023/01/05 13:15:22;;;;;;;4.40;1.23;;;;;;;9.58;91.99;99846.22;10377417;28;20149;-67
2023/01/05 13:20:41;;;;;;;7.07;1.55;;;;;;;9.74;87.13;99854.44;10414783;28;20067;-67
2023/01/05 13:26:00;;;;;;;5.68;1.85;;;;;;;9.80;87.43;99839.38;10422140;28;20056;-67
2023/01/05 13:31:24;;;;;;;2.88;1.30;;;;;;;9.89;86.03;99861.88;10421794;28;20041;-66
2023/01/05 13:37:07;;;;;;;5.68;1.35;;;;;;;9.94;85.51;99875.69;10420591;28;20045;-68
2023/01/05 13:42:17;;;;;;;5.30;1.42;;;;;;;9.82;84.86;99882.19;10376111;28;20048;-67
2023/01/05 13:47:53;;;;;;;4.78;1.90;;;;;;;9.85;85.25;99884.72;10344015;28;20069;-67
2023/01/05 13:53:09;;;;;;;3.35;0.93;;;;;;;9.72;86.26;99904.38;10374547;28;20061;-68
2023/01/05 13:58:43;;;;;;;4.00;1.40;;;;;;;9.53;92.08;99922.44;10376548;28;20050;-67
2023/01/05 14:03:52;;;;;;;3.38;1.10;;;;;;;9.25;96.03;99922.38;10360085;28;20054;-68
2023/01/05 14:09:07;;;;;;;4.47;1.40;;;;;;;9.20;97.79;99921.63;10375445;28;20048;-68
2023/01/05 14:14:25;;;;;;;4.75;1.90;;;;;;;9.10;98.10;99943.78;10420029;28;20395;-68
2023/01/05 14:19:36;;;;;;;4.95;1.70;;;;;;;8.83;100.00;99969.81;10419856;28;20038;-68
2023/01/05 14:24:46;;;;;;;4.88;1.92;;;;;;;8.76;100.00;99997.06;10419647;28;20033;-68
2023/01/05 14:29:48;;;;;;;5.25;1.55;;;;;;;8.62;100.00;99987.84;10419685;28;20048;-68
2023/01/05 14:35:10;;;;;;;3.20;1.30;;;;;;;8.47;100.00;100012.66;10419822;28;20041;-68
2023/01/05 14:40:14;;;;;;;1.45;0.73;;;;;;;8.45;100.00;100025.78;10418868;28;20079;-69
2023/01/05 14:45:23;;;;;;;1.38;0.60;;;;;;;8.25;100.00;100022.72;10419293;28;20132;-67
2023/01/05 14:50:36;;;;;;;;;;;;;;;8.26;100.00;100033.16;10417965;28;20041;-68
2023/01/05 14:56:02;;;;;;;3.10;1.20;;;;;;;8.04;100.00;100050.22;10418371;28;19920;-67
2023/01/05 15:01:15;;;;;;;2.37;0.70;;;;;;;7.94;100.00;100057.41;10412774;28;20095;-67
2023/01/05 15:06:43;;;;;;;2.42;1.00;;;;;;;7.90;100.00;100053.16;10416729;28;20045;-68
2023/01/05 15:11:59;;;;;;;2.53;0.90;;;;;;;7.90;100.00;100070.59;10417913;28;20565;-67
2023/01/05 15:17:35;;;;;;;1.10;0.60;;;;;;;8.13;100.00;100075.34;10418483;28;20080;-69
2023/01/05 15:23:05;;;;;;;1.67;0.73;;;;;;;8.14;100.00;100077.94;10417408;28;20052;-68
2023/01/05 15:28:27;;;;;;;1.30;0.80;;;;;;;7.88;100.00;100075.88;10417824;28;20045;-69
2023/01/05 15:33:50;;;;;;;1.50;0.60;;;;;;;7.94;100.00;100080.97;10416684;28;20399;-68
2023/01/05 15:38:53;;;;;;;1.95;0.60;;;;;;;8.02;100.00;100079.06;10416857;28;20055;-70
2023/01/05 15:43:55;;;;;;;2.05;0.75;;;;;;;8.01;100.00;100087.81;10416371;28;20033;-69
2023/01/05 15:49:00;;;;;;;1.05;0.60;;;;;;;7.95;100.00;100098.41;10417392;28;20429;-67
2023/01/05 15:54:04;;;;;;;1.42;0.45;;;;;;;7.88;100.00;100102.06;10416226;28;20049;-67
2023/01/05 15:59:27;;;;;;;1.10;0.47;;;;;;;7.90;100.00;100108.09;10416683;28;20041;-67
2023/01/05 16:04:28;;;;;;;0.98;0.50;;;;;;;7.87;98.58;100108.16;10440087;22;20049;-72
2023/01/05 16:09:37;;;;;;;1.83;0.50;;;;;;;7.75;98.52;100127.59;10420362;28;20057;-72
2023/01/05 16:14:43;;;;;;;1.27;0.70;;;;;;;7.65;98.21;100136.47;10419259;28;20403;-73
2023/01/05 16:19:49;;;;;;;1.83;1.00;;;;;;;7.76;96.77;100152.00;10416037;28;20556;-73
2023/01/05 16:25:14;;;;;;;2.90;0.70;;;;;;;7.64;97.25;100141.75;10418083;28;20476;-73
2023/01/05 16:30:32;;;;;;;1.55;0.40;;;;;;;7.72;98.20;100158.19;10427476;28;20052;-73
2023/01/05 16:35:43;;;;;;;0.63;0.45;;;;;;;7.67;98.96;100158.25;10437313;28;20045;-73
2023/01/05 16:40:45;;;;;;;1.30;0.63;;;;;;;7.84;97.22;100174.53;10422848;28;20053;-73
2023/01/05 16:45:48;;;;;;;0.65;0.28;;;;;;;7.69;98.03;100181.78;10418195;28;20038;-72
2023/01/05 16:50:56;;;;;;;0.77;0.40;;;;;;;7.63;99.76;100201.06;10418248;28;20045;-74
2023/01/05 16:55:58;;;;;;;1.77;0.40;;;;;;;7.63;99.49;100187.97;10416508;28;20092;-73
2023/01/05 17:01:21;;;;;;;2.28;0.90;;;;;;;7.65;100.00;100195.78;10419422;28;20049;-73
2023/01/05 17:06:30;;;;;;;2.60;0.60;;;;;;;7.48;100.00;100204.81;10417803;28;20129;-73
2023/01/05 17:11:37;;;;;;;1.65;0.60;;;;;;;7.58;100.00;100203.75;10416107;28;20041;-73
2023/01/05 17:16:38;;;;;;;1.20;0.85;;;;;;;7.50;100.00;100207.38;10414703;28;20503;-73
2023/01/05 17:21:55;;;;;;;1.63;0.73;;;;;;;7.47;100.00;100216.13;10417062;28;20069;-73
2023/01/05 17:26:57;;;;;;;1.67;0.68;;;;;;;7.52;100.00;100222.16;10418936;28;20076;-74
2023/01/05 17:31:59;;;;;;;2.05;0.80;;;;;;;7.35;100.00;100226.81;10423232;28;20051;-72
2023/01/05 17:37:01;;;;;;;2.30;0.90;;;;;;;7.37;100.00;100240.72;10421355;28;20049;-73
2023/01/05 17:47:24;;;;;;;1.10;0.75;;;;;;;7.39;100.00;100243.28;10423876;28;20041;-73
2023/01/05 17:52:26;;;;;;;1.13;0.70;;;;;;;7.37;100.00;100248.56;10420720;28;20037;-74
2023/01/05 17:57:27;;;;;;;1.35;0.77;;;;;;;7.49;100.00;100253.63;10422518;28;20052;-73
2023/01/05 18:02:29;;;;;;;1.92;1.10;;;;;;;7.58;100.00;100263.06;10422449;28;20463;-73
2023/01/05 18:07:32;;;;;;;2.17;1.02;;;;;;;7.56;100.00;100260.44;10423271;28;20506;-73
2023/01/05 18:12:34;;;;;;;1.52;0.85;;;;;;;7.49;100.00;100268.44;10422237;28;20045;-73
2023/01/05 18:17:36;;;;;;;1.52;0.82;;;;;;;7.47;100.00;100273.69;10422290;28;20084;-73
2023/01/05 18:22:38;;;;;;;2.90;1.23;;;;;;;7.56;99.84;100276.16;10421389;28;20045;-75
2023/01/05 18:27:44;;;;;;;0.77;0.70;;;;;;;7.52;99.95;100273.59;10424648;28;20056;-75
2023/01/05 18:32:49;;;;;;;1.50;0.40;;;;;;;7.39;99.88;100290.38;10423370;28;20171;-73
2023/01/05 18:37:50;;;;;;;2.30;1.10;;;;;;;7.53;98.81;100293.66;10419542;28;20081;-73
2023/01/05 18:42:52;;;;;;;2.03;1.10;;;;;;;7.55;98.31;100297.97;10418757;28;20041;-73
2023/01/05 18:47:56;;;;;;;2.50;0.70;;;;;;;7.42;98.53;100311.25;10423871;28;20118;-73
2023/01/05 18:52:58;;;;;;;1.48;0.70;;;;;;;7.38;97.34;100323.50;10419519;28;20505;-73
2023/01/05 18:58:00;;;;;;;1.83;0.60;;;;;;;7.51;95.50;100329.44;10419522;28;20053;-73
2023/01/05 19:03:02;;;;;;;1.67;0.70;;;;;;;7.38;95.89;100322.66;10418074;28;20049;-74
2023/01/05 19:08:04;;;;;;;2.20;0.80;;;;;;;7.40;96.03;100336.59;10418744;28;20037;-72
2023/01/05 19:13:05;;;;;;;1.58;0.88;;;;;;;7.53;96.00;100327.69;10421971;28;20038;-73
2023/01/05 19:18:07;;;;;;;3.83;1.95;;;;;;;7.46;97.30;100332.13;10419256;28;20045;-74
2023/01/05 19:23:09;;;;;;;1.05;0.60;;;;;;;7.37;96.66;100323.53;10423330;28;20045;-74
2023/01/05 19:28:11;;;;;;;1.83;0.50;;;;;;;7.32;97.41;100328.84;10417482;28;20064;-73
2023/01/05 19:33:12;;;;;;;1.77;0.70;;;;;;;7.39;97.62;100325.22;10419880;28;20121;-74
2023/01/05 19:38:14;;;;;;;1.85;0.80;;;;;;;7.17;100.00;100326.41;10419113;28;20045;-73
2023/01/05 19:43:16;;;;;;;3.38;1.73;;;;;;;7.12;100.00;100334.31;10404844;28;20053;-73
2023/01/05 19:48:18;;;;;;;4.07;1.40;;;;;;;7.05;100.00;100330.94;10419692;28;20077;-74
2023/01/05 19:53:20;;;;;;;2.10;0.90;;;;;;;7.01;100.00;100336.22;10424879;28;20079;-73
2023/01/05 19:58:22;;;;;;;6.38;2.05;;;;;;;7.18;100.00;100346.47;10420932;28;20051;-73
2023/01/05 20:03:24;;;;;;;2.75;1.85;;;;;;;7.40;99.70;100347.03;10418406;28;20049;-73
2023/01/05 20:08:26;;;;;;;2.00;1.30;;;;;;;6.95;100.00;100349.34;10416814;28;20107;-73
2023/01/05 20:13:27;;;;;;;2.78;1.40;;;;;;;6.91;100.00;100355.50;10418235;28;20045;-74
2023/01/05 20:18:29;;;;;;;2.55;1.55;;;;;;;6.93;100.00;100365.03;10420353;28;20057;-73
2023/01/05 20:23:36;;;;;;;6.25;1.40;;;;;;;6.93;100.00;100375.50;10418268;28;20050;-74
2023/01/05 20:28:39;;;;;;;7.47;4.70;;;;;;;7.10;100.00;100385.75;10417461;28;20037;-73
2023/01/05 20:33:41;;;;;;;5.70;2.38;;;;;;;6.97;100.00;100390.28;10419414;28;20092;-72
2023/01/05 20:38:43;;;;;;;3.95;1.40;;;;;;;6.89;100.00;100389.47;10419816;28;20454;-73
2023/01/05 20:43:46;;;;;;;3.85;1.60;;;;;;;7.02;100.00;100398.91;10418309;28;20440;-74
2023/01/05 20:48:50;;;;;;;2.53;1.15;;;;;;;6.96;100.00;100406.84;10416240;28;20046;-72
2023/01/05 20:53:53;;;;;;;2.42;1.02;;;;;;;7.27;97.11;100404.72;10417464;28;20033;-72
2023/01/05 20:58:55;;;;;;;3.15;0.88;;;;;;;7.10;98.46;100405.81;10421468;28;20065;-73
2023/01/05 21:03:58;;;;;;;2.25;0.90;;;;;;;7.10;98.73;100398.84;10422111;28;20068;-75
2023/01/05 21:09:01;;;;;;;2.95;1.02;;;;;;;6.98;99.40;100412.91;10429073;28;20051;-73
2023/01/05 21:14:05;;;;;;;2.15;0.90;;;;;;;7.10;98.21;100421.50;10428047;28;20037;-72
2023/01/05 21:19:10;;;;;;;8.10;1.30;;;;;;;7.21;97.40;100430.06;10423545;28;20041;-75
2023/01/05 21:24:12;;;;;;;3.38;0.98;;;;;;;7.07;98.43;100440.69;10426849;28;20050;-73
2023/01/05 21:29:16;;;;;;;2.92;0.90;;;;;;;7.03;99.03;100434.63;10427009;28;20152;-73
2023/01/05 21:34:17;;;;;;;5.10;0.82;;;;;;;7.03;98.35;100439.00;10425316;28;20033;-73
2023/01/05 21:39:23;;;;;;;4.60;0.80;;;;;;;7.04;97.12;100449.44;10426238;28;20038;-74
2023/01/05 21:44:25;;;;;;;1.55;0.80;;;;;;;6.95;98.06;100448.66;10426641;28;20072;-72
2023/01/05 21:49:27;;;;;;;2.13;0.88;;;;;;;6.97;99.03;100450.38;10423549;28;20454;-74
2023/01/05 21:59:49;;;;;;;1.85;0.90;;;;;;;7.01;98.97;100449.47;10424907;28;20066;-73
2023/01/05 22:04:51;;;;;;;2.80;0.85;;;;;;;6.97;99.34;100447.75;10446394;22;20046;-74
2023/01/05 22:09:53;;;;;;;1.65;0.60;;;;;;;7.01;99.56;100456.44;10381498;28;20140;-74
2023/01/05 22:14:55;;;;;;;4.88;1.00;;;;;;;7.11;99.41;100445.00;10378611;28;20045;-74
2023/01/05 22:19:57;;;;;;;3.03;0.65;;;;;;;7.06;99.45;100439.81;10379745;28;20148;-74
2023/01/05 22:24:59;;;;;;;1.92;0.93;;;;;;;6.92;100.00;100449.56;10379187;28;20048;-74
2023/01/05 22:30:01;;;;;;;2.28;0.93;;;;;;;6.94;100.00;100441.69;10379779;28;20054;-77
2023/01/05 22:35:04;;;;;;;3.05;0.90;;;;;;;7.01;100.00;100448.59;10380368;28;20534;-77
2023/01/05 22:40:06;;;;;;;3.85;1.42;;;;;;;6.92;100.00;100446.94;10380941;28;20045;-77
2023/01/05 22:45:08;;;;;;;3.17;0.93;;;;;;;6.81;100.00;100460.09;10382637;28;20038;-78
2023/01/05 22:50:10;;;;;;;3.45;0.82;;;;;;;6.90;99.99;100458.28;10382445;28;20056;-77
2023/01/05 22:55:12;;;;;;;3.22;1.23;;;;;;;6.94;98.34;100454.75;10380251;28;20052;-77
2023/01/05 23:00:14;;;;;;;1.75;0.80;;;;;;;6.94;98.45;100460.84;10378499;28;20104;-77
2023/01/05 23:05:15;;;;;;;2.65;0.88;;;;;;;6.65;100.00;100460.28;10379469;28;20050;-77
2023/01/05 23:10:17;;;;;;;1.98;0.90;;;;;;;7.00;100.00;100475.63;10378470;28;20379;-77
2023/01/05 23:15:19;;;;;;;1.98;0.90;;;;;;;7.08;98.73;100471.16;10377339;28;20045;-76
2023/01/05 23:20:23;;;;;;;6.05;1.95;;;;;;;7.07;100.00;100474.66;10378450;28;20049;-78
2023/01/05 23:25:25;;;;;;;6.63;2.72;;;;;;;6.97;100.00;100479.13;10378171;28;20108;-77
2023/01/05 23:30:27;;;;;;;7.80;5.40;;;;;;;6.76;100.00;100477.59;10384541;28;20117;-78
2023/01/05 23:35:29;;;;;;;10.93;8.57;;;;;;;7.04;100.00;100475.59;10381522;28;20042;-77
2023/01/05 23:40:31;;;;;;;13.80;10.90;;;;;;;6.80;100.00;100476.66;10379454;28;20045;-78
2023/01/05 23:45:33;;;;;;;20.27;13.05;;;;;;;6.45;100.00;100479.59;10379115;28;20128;-77
2023/01/05 23:50:34;;;;;;;18.02;14.52;;;;;;;6.70;100.00;100475.03;10379251;28;20042;-78
2023/01/05 23:55:37;;;;;;;16.83;12.18;;;;;;;6.75;100.00;100478.47;10379865;28;20487;-78
